You are listening to:
YMML Twr/App/Center - Melbourne, Victoria, Australia

YMML 061000Z 00000KT 9999 FEW049 08/05 Q1019

If stream doesn't start automatically press the play button
If stream stops then reload player then press play